Tuesday, November 21, 2017, 10:55 PM EST
Back to Local

KABE, Lehigh Valley International Airport

Location: Allentown, PA, United States Lat: 40.65
Local Time: 10:55 PM EST ( 3:55 GMT) Lon: -75.45
Time Zone: US/Eastern Elev: 393 ft

Show me the last for .
Show Decoded

2017-11-21 21:51 METAR KABE 220251Z 00000KT 10SM CLR 03/M01 A3002 RMK AO2 SLP170 T00281011 53003
                 =
2017-11-21 20:51 METAR KABE 220151Z 02003KT 10SM CLR 03/M02 A3002 RMK AO2 SLP168 T00331017 =
2017-11-21 19:51 METAR KABE 220051Z 00000KT 10SM CLR 05/M01 A3002 RMK AO2 SLP168 T00501011 =
2017-11-21 18:51 METAR KABE 212351Z 00000KT 10SM CLR 06/M01 A3002 RMK AO2 SLP168 T00611011 10144
                 20061 51008 =
2017-11-21 17:51 METAR KABE 212251Z 23003KT 10SM CLR 07/M01 A3001 RMK AO2 SLP165 T00721011 =
2017-11-21 16:51 METAR KABE 212151Z 22007KT 10SM CLR 10/M01 A3000 RMK AO2 SLP161 T01001011 =
2017-11-21 15:51 METAR KABE 212051Z 19012KT 10SM CLR 13/M02 A2999 RMK AO2 SLP158 T01281022 56014
                 =
2017-11-21 14:51 METAR KABE 211951Z 19011KT 10SM CLR 14/M01 A3000 RMK AO2 SLP162 T01391011 =
2017-11-21 13:51 METAR KABE 211851Z 17007KT 10SM CLR 14/M01 A3000 RMK AO2 SLP161 T01441011 =
2017-11-21 12:51 METAR KABE 211751Z 22010KT 10SM CLR 14/M02 A3003 RMK AO2 SLP172 T01391022 10139
                 21039 58023 =
2017-11-21 11:51 METAR KABE 211651Z 23007KT 10SM CLR 13/M02 A3006 RMK AO2 SLP180 T01281017 =
2017-11-21 10:51 METAR KABE 211551Z 22006KT 10SM CLR 11/M01 A3009 RMK AO2 SLP190 T01061011 =
2017-11-21 09:51 METAR KABE 211451Z 24003KT 10SM CLR 06/M01 A3010 RMK AO2 SLP196 T00611011 56002
                 =
2017-11-21 08:51 METAR KABE 211351Z 32003KT 10SM CLR 02/M03 A3010 RMK AO2 SLP197 T00171028 =
2017-11-21 07:51 METAR KABE 211251Z 00000KT 10SM CLR M01/M05 A3010 RMK AO2 SLP197 T10111050 =
2017-11-21 06:51 METAR KABE 211151Z 36003KT 10SM CLR M03/M06 A3011 RMK AO2 SLP199 T10331061 10000
                 21039 53004 =
2017-11-21 05:51 METAR KABE 211051Z 00000KT 10SM CLR M03/M06 A3009 RMK AO2 SLP193 T10281056 =
2017-11-21 04:51 METAR KABE 210951Z 00000KT 10SM CLR M03/M05 A3010 RMK AO2 SLP196 T10281050 =
2017-11-21 03:51 METAR KABE 210851Z 00000KT 10SM CLR M03/M06 A3010 RMK AO2 SLP195 T10281056 58007
                 =
2017-11-21 02:51 METAR KABE 210751Z 00000KT 10SM CLR M02/M06 A3012 RMK AO2 SLP202 T10221056 =
2017-11-21 01:51 METAR KABE 210651Z 00000KT 10SM CLR M01/M05 A3012 RMK AO2 SLP203 T10111050 =
2017-11-21 00:51 METAR KABE 210551Z 35003KT 10SM CLR M02/M06 A3012 RMK AO2 SLP201 T10171056 10044
                 21022 58002 =
2017-11-20 23:51 METAR KABE 210451Z 00000KT 10SM CLR M01/M05 A3012 RMK AO2 SLP204 T10061050
                 400781011 =

Support USWX by starting your Amazon purchase here.